Time;durP1;ratioP1;P1;durP2;ratioP2;P2;SDS_P1;SDS_P2;PMS_P1;PMS_P2;Temp;Humidity;BMP_temperature;BMP_pressure;BME280_temperature;BME280_humidity;BME280_pressure;Samples;Min_cycle;Max_cycle;Signal;HPM_P1;HPM_P2
2023/08/11 00:02:00;;;;;;;;;;;;;;;;;;5325575;28;19908;-73
2023/08/11 00:04:31;;;;;;;;;;;;;;;;;;5325588;28;19908;-73
2023/08/11 00:07:02;;;;;;;;;;;;;;;;;;5325651;28;19908;-73
2023/08/11 00:09:33;;;;;;;;;;;;;;;;;;5324649;28;20369;-73
2023/08/11 00:12:04;;;;;;;;;;;;;;;;;;5326113;28;19908;-73
2023/08/11 00:14:36;;;;;;;;;;;;;;;;;;5324408;28;19961;-74
2023/08/11 00:17:07;;;;;;;;;;;;;;;;;;5325411;28;19912;-73
2023/08/11 00:19:38;;;;;;;;;;;;;;;;;;5324887;28;19922;-73
2023/08/11 00:22:09;;;;;;;;;;;;;;;;;;5324765;28;19907;-73
2023/08/11 00:24:40;;;;;;;;;;;;;;;;;;5324239;28;20274;-73
2023/08/11 00:27:11;;;;;;;;;;;;;;;;;;5324896;28;19966;-72
2023/08/11 00:29:43;;;;;;;;;;;;;;;;;;5323794;28;20657;-73
2023/08/11 00:32:14;;;;;;;;;;;;;;;;;;5325344;28;19919;-73
2023/08/11 00:34:47;;;;;;;;;;;;;;;;;;5324463;28;20386;-73
2023/08/11 00:37:18;;;;;;;;;;;;;;;;;;5324362;28;20020;-73
2023/08/11 00:39:51;;;;;;;;;;;;;;;;;;5324309;28;19919;-72
2023/08/11 00:42:22;;;;;;;;;;;;;;;;;;5324752;28;20312;-73
2023/08/11 00:44:53;;;;;;;;;;;;;;;;;;5323686;28;20052;-73
2023/08/11 00:47:25;;;;;;;;;;;;;;;;;;5324649;28;20428;-72
2023/08/11 00:49:56;;;;;;;;;;;;;;;;;;5323854;28;20305;-73
2023/08/11 00:52:28;;;;;;;;;;;;;;;;;;5324877;28;19990;-74
2023/08/11 00:54:59;;;;;;;;;;;;;;;;;;5324957;28;19943;-73
2023/08/11 00:57:31;;;;;;;;;;;;;;;;;;5323341;28;19912;-73
2023/08/11 01:00:11;;;;;;;;;;;;;;;;;;5324960;28;19915;-74
2023/08/11 01:02:42;;;;;;;;;;;;;;;;;;5324567;28;19907;-74
2023/08/11 01:05:14;;;;;;;;;;;;;;;;;;5324048;28;19907;-74
2023/08/11 01:07:45;;;;;;;;;;;;;;;;;;5323802;28;19940;-74
2023/08/11 01:10:16;;;;;;;;;;;;;;;;;;5324709;28;19908;-74
2023/08/11 01:12:47;;;;;;;;;;;;;;;;;;5323271;28;19950;-72
2023/08/11 01:15:18;;;;;;;;;;;;;;;;;;5324418;28;19914;-72
2023/08/11 01:17:50;;;;;;;;;;;;;;;;;;5323643;28;19999;-73
2023/08/11 01:20:21;;;;;;;;;;;;;;;;;;5323769;28;19923;-73
2023/08/11 01:22:53;;;;;;;;;;;;;;;;;;5323656;28;19958;-73
2023/08/11 01:25:24;;;;;;;;;;;;;;;;;;5323424;28;19960;-73
2023/08/11 01:27:55;;;;;;;;;;;;;;;;;;5324048;28;19943;-73
2023/08/11 01:30:26;;;;;;;;;;;;;;;;;;5323865;28;19919;-73
2023/08/11 01:32:57;;;;;;;;;;;;;;;;;;5323356;28;19916;-73
2023/08/11 01:35:28;;;;;;;;;;;;;;;;;;5323756;28;20023;-73
2023/08/11 01:38:00;;;;;;;;;;;;;;;;;;5323864;28;20443;-73
2023/08/11 01:40:31;;;;;;;;;;;;;;;;;;5322605;28;20014;-73
2023/08/11 01:43:02;;;;;;;;;;;;;;;;;;5324371;28;20003;-73
2023/08/11 01:45:33;;;;;;;;;;;;;;;;;;5324084;28;19908;-73
2023/08/11 01:48:04;;;;;;;;;;;;;;;;;;5323488;28;19907;-73
2023/08/11 01:50:35;;;;;;;;;;;;;;;;;;5323823;28;20385;-73
2023/08/11 01:53:07;;;;;;;;;;;;;;;;;;5323284;28;19992;-73
2023/08/11 01:55:38;;;;;;;;;;;;;;;;;;5323433;28;19938;-73
2023/08/11 01:58:09;;;;;;;;;;;;;;;;;;5324190;28;19911;-73
2023/08/11 02:00:41;;;;;;;;;;;;;;;;;;5322682;28;19916;-73
2023/08/11 02:03:12;;;;;;;;;;;;;;;;;;5324310;28;20371;-73
2023/08/11 02:05:43;;;;;;;;;;;;;;;;;;5323206;28;19911;-72
2023/08/11 02:08:17;;;;;;;;;;;;;;;;;;5323338;28;19915;-72
2023/08/11 02:10:48;;;;;;;;;;;;;;;;;;5323638;28;19908;-73
2023/08/11 02:13:20;;;;;;;;;;;;;;;;;;5324418;28;19960;-72
2023/08/11 02:15:51;;;;;;;;;;;;;;;;;;5322862;28;19911;-72
2023/08/11 02:18:22;;;;;;;;;;;;;;;;;;5324032;28;19961;-72
2023/08/11 02:20:53;;;;;;;;;;;;;;;;;;5323420;28;19947;-73
2023/08/11 02:23:24;;;;;;;;;;;;;;;;;;5323232;28;19958;-73
2023/08/11 02:25:55;;;;;;;;;;;;;;;;;;5323745;28;19954;-73
2023/08/11 02:28:26;;;;;;;;;;;;;;;;;;5323068;28;19947;-72
2023/08/11 02:30:57;;;;;;;;;;;;;;;;;;5323637;28;20002;-72
2023/08/11 02:33:28;;;;;;;;;;;;;;;;;;5323771;28;19908;-72
2023/08/11 02:36:00;;;;;;;;;;;;;;;;;;5322634;28;19920;-72
2023/08/11 02:38:31;;;;;;;;;;;;;;;;;;5323245;28;19953;-72
2023/08/11 02:41:03;;;;;;;;;;;;;;;;;;5323488;28;20342;-72
2023/08/11 02:43:36;;;;;;;;;;;;;;;;;;5322375;28;19908;-73
2023/08/11 02:46:07;;;;;;;;;;;;;;;;;;5324150;28;19972;-72
2023/08/11 02:48:39;;;;;;;;;;;;;;;;;;5324232;28;19912;-72
2023/08/11 02:51:10;;;;;;;;;;;;;;;;;;5308831;28;19930;-72
2023/08/11 02:53:41;;;;;;;;;;;;;;;;;;5326975;28;19915;-72
2023/08/11 02:56:15;;;;;;;;;;;;;;;;;;5327487;28;19908;-73
2023/08/11 02:58:46;;;;;;;;;;;;;;;;;;5325735;28;20374;-72
2023/08/11 03:01:17;;;;;;;;;;;;;;;;;;5326882;28;19915;-73
2023/08/11 03:03:48;;;;;;;;;;;;;;;;;;5325676;28;20297;-73
2023/08/11 03:06:19;;;;;;;;;;;;;;;;;;5326822;28;20264;-73
2023/08/11 03:08:51;;;;;;;;;;;;;;;;;;5326330;28;20060;-73
2023/08/11 03:11:22;;;;;;;;;;;;;;;;;;5325820;28;19907;-73
2023/08/11 03:13:54;;;;;;;;;;;;;;;;;;5326009;28;19915;-73
2023/08/11 03:16:25;;;;;;;;;;;;;;;;;;5326392;28;20311;-73
2023/08/11 03:18:56;;;;;;;;;;;;;;;;;;5325664;28;20358;-73
2023/08/11 03:21:27;;;;;;;;;;;;;;;;;;5326322;28;20429;-73
2023/08/11 03:23:59;;;;;;;;;;;;;;;;;;5326244;28;19911;-73
2023/08/11 03:26:30;;;;;;;;;;;;;;;;;;5325363;28;19914;-72
2023/08/11 03:29:01;;;;;;;;;;;;;;;;;;5326498;28;20363;-73
2023/08/11 03:31:32;;;;;;;;;;;;;;;;;;5325080;28;19907;-73
2023/08/11 03:34:03;;;;;;;;;;;;;;;;;;5326983;28;19965;-73
2023/08/11 03:36:35;;;;;;;;;;;;;;;;;;5326466;28;20006;-73
2023/08/11 03:39:06;;;;;;;;;;;;;;;;;;5325983;28;19911;-72
2023/08/11 03:41:37;;;;;;;;;;;;;;;;;;5326154;28;20007;-72
2023/08/11 03:44:08;;;;;;;;;;;;;;;;;;5326706;28;19937;-72
2023/08/11 03:46:39;;;;;;;;;;;;;;;;;;5325161;28;20286;-73
2023/08/11 03:49:11;;;;;;;;;;;;;;;;;;5326337;28;19908;-73
2023/08/11 03:51:42;;;;;;;;;;;;;;;;;;5325578;28;20271;-73
2023/08/11 03:54:13;;;;;;;;;;;;;;;;;;5325433;28;20410;-73
2023/08/11 03:56:45;;;;;;;;;;;;;;;;;;5325387;28;19914;-73
2023/08/11 03:59:16;;;;;;;;;;;;;;;;;;5325813;28;20347;-73
2023/08/11 04:01:47;;;;;;;;;;;;;;;;;;5324549;28;19914;-73
2023/08/11 04:04:18;;;;;;;;;;;;;;;;;;5325792;28;19964;-73
2023/08/11 04:06:51;;;;;;;;;;;;;;;;;;5324273;28;19976;-73
2023/08/11 04:09:23;;;;;;;;;;;;;;;;;;5325854;28;19961;-73
2023/08/11 04:11:54;;;;;;;;;;;;;;;;;;5325788;28;19907;-73
2023/08/11 04:14:25;;;;;;;;;;;;;;;;;;5324809;28;19915;-73
2023/08/11 04:16:56;;;;;;;;;;;;;;;;;;5325406;28;19915;-73
2023/08/11 04:19:27;;;;;;;;;;;;;;;;;;5325810;28;19941;-73
2023/08/11 04:21:59;;;;;;;;;;;;;;;;;;5324991;28;20386;-73
2023/08/11 04:24:30;;;;;;;;;;;;;;;;;;5325139;28;19930;-74
2023/08/11 04:27:01;;;;;;;;;;;;;;;;;;5325444;28;19908;-73
2023/08/11 04:29:32;;;;;;;;;;;;;;;;;;5324482;28;20398;-72
2023/08/11 04:32:04;;;;;;;;;;;;;;;;;;5325844;28;19918;-73
2023/08/11 04:34:35;;;;;;;;;;;;;;;;;;5324586;28;19926;-73
2023/08/11 04:37:08;;;;;;;;;;;;;;;;;;5324656;28;19908;-74
2023/08/11 04:39:39;;;;;;;;;;;;;;;;;;5324602;28;20311;-73
2023/08/11 04:42:10;;;;;;;;;;;;;;;;;;5324337;28;19911;-74
2023/08/11 04:44:41;;;;;;;;;;;;;;;;;;5324273;28;20002;-74
2023/08/11 04:47:12;;;;;;;;;;;;;;;;;;5325118;28;19908;-73
2023/08/11 04:49:43;;;;;;;;;;;;;;;;;;5323394;28;19919;-74
2023/08/11 04:52:14;;;;;;;;;;;;;;;;;;5325100;28;19908;-73
2023/08/11 04:54:45;;;;;;;;;;;;;;;;;;5324308;28;20398;-73
2023/08/11 04:57:17;;;;;;;;;;;;;;;;;;5324235;28;19908;-73
2023/08/11 04:59:48;;;;;;;;;;;;;;;;;;5324593;28;19920;-74
2023/08/11 05:02:19;;;;;;;;;;;;;;;;;;5324692;28;19914;-73
2023/08/11 05:04:50;;;;;;;;;;;;;;;;;;5323474;28;20014;-73
2023/08/11 05:07:21;;;;;;;;;;;;;;;;;;5324974;28;19915;-73
2023/08/11 05:09:52;;;;;;;;;;;;;;;;;;5324076;28;19960;-74
2023/08/11 05:12:24;;;;;;;;;;;;;;;;;;5322806;28;19919;-73
2023/08/11 05:14:55;;;;;;;;;;;;;;;;;;5324132;28;20385;-73
2023/08/11 05:17:26;;;;;;;;;;;;;;;;;;5323428;28;19908;-74
2023/08/11 05:19:57;;;;;;;;;;;;;;;;;;5324653;28;19920;-74
2023/08/11 05:22:28;;;;;;;;;;;;;;;;;;5324643;28;19931;-74
2023/08/11 05:24:59;;;;;;;;;;;;;;;;;;5323830;28;19914;-74
2023/08/11 05:27:31;;;;;;;;;;;;;;;;;;5324172;28;19908;-74
2023/08/11 05:30:02;;;;;;;;;;;;;;;;;;5324590;28;20290;-74
2023/08/11 05:32:33;;;;;;;;;;;;;;;;;;5322964;28;19908;-74
2023/08/11 05:35:04;;;;;;;;;;;;;;;;;;5324421;28;20394;-73
2023/08/11 05:37:37;;;;;;;;;;;;;;;;;;5323442;28;19907;-74
2023/08/11 05:40:09;;;;;;;;;;;;;;;;;;5323038;28;20010;-73
2023/08/11 05:42:40;;;;;;;;;;;;;;;;;;5323113;28;20056;-74
2023/08/11 05:45:11;;;;;;;;;;;;;;;;;;5323102;28;19908;-75
2023/08/11 05:47:42;;;;;;;;;;;;;;;;;;5323539;28;19908;-75
2023/08/11 05:50:13;;;;;;;;;;;;;;;;;;5324107;28;19915;-74
2023/08/11 05:52:44;;;;;;;;;;;;;;;;;;5322599;28;19915;-74
2023/08/11 05:55:15;;;;;;;;;;;;;;;;;;5323959;28;20436;-74
2023/08/11 05:57:46;;;;;;;;;;;;;;;;;;5323426;28;19961;-74
2023/08/11 06:00:18;;;;;;;;;;;;;;;;;;5323019;28;20011;-74
2023/08/11 06:02:49;;;;;;;;;;;;;;;;;;5323121;28;19970;-74
2023/08/11 06:05:21;;;;;;;;;;;;;;;;;;5323743;28;19926;-74
2023/08/11 06:07:53;;;;;;;;;;;;;;;;;;5322865;28;19914;-74
2023/08/11 06:10:25;;;;;;;;;;;;;;;;;;5323616;28;19908;-74
2023/08/11 06:12:56;;;;;;;;;;;;;;;;;;5323554;28;19943;-74
2023/08/11 06:15:27;;;;;;;;;;;;;;;;;;5322919;28;19951;-74
2023/08/11 06:17:58;;;;;;;;;;;;;;;;;;5323784;28;20098;-74
2023/08/11 06:20:30;;;;;;;;;;;;;;;;;;5322623;28;19961;-75
2023/08/11 06:23:01;;;;;;;;;;;;;;;;;;5324240;28;19914;-74
2023/08/11 06:25:32;;;;;;;;;;;;;;;;;;5327315;28;19914;-74
2023/08/11 06:28:03;;;;;;;;;;;;;;;;;;5327079;28;19908;-74
2023/08/11 06:30:34;;;;;;;;;;;;;;;;;;5326895;28;19908;-75
2023/08/11 06:33:05;;;;;;;;;;;;;;;;;;5328186;28;19914;-75
2023/08/11 06:35:37;;;;;;;;;;;;;;;;;;5326508;28;20027;-74
2023/08/11 06:38:09;;;;;;;;;;;;;;;;;;5327921;28;20381;-74
2023/08/11 06:40:41;;;;;;;;;;;;;;;;;;5327192;28;19915;-74
2023/08/11 06:43:12;;;;;;;;;;;;;;;;;;5326679;28;19914;-74
2023/08/11 06:45:45;;;;;;;;;;;;;;;;;;5326892;28;19908;-73
2023/08/11 06:48:16;;;;;;;;;;;;;;;;;;5327359;28;20397;-72
2023/08/11 06:50:47;;;;;;;;;;;;;;;;;;5325742;28;20097;-73
2023/08/11 06:53:18;;;;;;;;;;;;;;;;;;5326986;28;19954;-73
2023/08/11 06:55:49;;;;;;;;;;;;;;;;;;5325779;28;19912;-74
2023/08/11 06:58:21;;;;;;;;;;;;;;;;;;5327350;28;19903;-73
2023/08/11 07:00:52;;;;;;;;;;;;;;;;;;5326326;28;19926;-73
2023/08/11 07:03:23;;;;;;;;;;;;;;;;;;5325717;28;19908;-73
2023/08/11 07:05:54;;;;;;;;;;;;;;;;;;5326618;28;20290;-73
2023/08/11 07:08:26;;;;;;;;;;;;;;;;;;5326502;28;19918;-73
2023/08/11 07:10:57;;;;;;;;;;;;;;;;;;5326058;28;19960;-72
2023/08/11 07:13:28;;;;;;;;;;;;;;;;;;5326794;28;20004;-75
2023/08/11 07:15:59;;;;;;;;;;;;;;;;;;5326741;28;19962;-74
2023/08/11 07:18:30;;;;;;;;;;;;;;;;;;5325852;28;19953;-74
2023/08/11 07:21:01;;;;;;;;;;;;;;;;;;5327136;28;20008;-72
2023/08/11 07:23:32;;;;;;;;;;;;;;;;;;5326547;28;20423;-73
2023/08/11 07:26:03;;;;;;;;;;;;;;;;;;5326318;28;19915;-74
2023/08/11 07:28:34;;;;;;;;;;;;;;;;;;5322148;28;19914;-73
2023/08/11 07:31:06;;;;;;;;;;;;;;;;;;5325644;28;20274;-73
2023/08/11 07:33:39;;;;;;;;;;;;;;;;;;5325973;28;19934;-75
2023/08/11 07:36:10;;;;;;;;;;;;;;;;;;5325936;28;19943;-73
2023/08/11 07:38:42;;;;;;;;;;;;;;;;;;5325390;28;20359;-73
2023/08/11 07:41:14;;;;;;;;;;;;;;;;;;5326401;28;19908;-72
2023/08/11 07:43:45;;;;;;;;;;;;;;;;;;5322986;28;19908;-75
2023/08/11 07:46:16;;;;;;;;;;;;;;;;;;5325707;28;20328;-73
2023/08/11 07:48:47;;;;;;;;;;;;;;;;;;5325720;28;19922;-75
2023/08/11 07:51:18;;;;;;;;;;;;;;;;;;5326542;28;20400;-73
2023/08/11 07:53:51;;;;;;;;;;;;;;;;;;5325022;28;19969;-74
2023/08/11 07:56:22;;;;;;;;;;;;;;;;;;5326311;28;20278;-74
2023/08/11 07:58:53;;;;;;;;;;;;;;;;;;5325041;28;19911;-74
2023/08/11 08:01:26;;;;;;;;;;;;;;;;;;5325924;28;19911;-73
2023/08/11 08:03:57;;;;;;;;;;;;;;;;;;5325711;28;19911;-73
2023/08/11 08:06:29;;;;;;;;;;;;;;;;;;5325324;28;19965;-73
2023/08/11 08:09:01;;;;;;;;;;;;;;;;;;5326106;28;19907;-73
2023/08/11 08:11:32;;;;;;;;;;;;;;;;;;5324610;28;19908;-74
2023/08/11 08:14:03;;;;;;;;;;;;;;;;;;5325053;28;19914;-73
2023/08/11 08:16:34;;;;;;;;;;;;;;;;;;5324680;28;19911;-73
2023/08/11 08:19:05;;;;;;;;;;;;;;;;;;5326063;28;19915;-73
2023/08/11 08:21:37;;;;;;;;;;;;;;;;;;5324794;28;19908;-73
2023/08/11 08:24:08;;;;;;;;;;;;;;;;;;5325833;28;19912;-73
2023/08/11 08:26:39;;;;;;;;;;;;;;;;;;5325441;28;19908;-73
2023/08/11 08:29:10;;;;;;;;;;;;;;;;;;5324853;28;19915;-73
2023/08/11 08:31:41;;;;;;;;;;;;;;;;;;5325040;28;19907;-74
2023/08/11 08:34:12;;;;;;;;;;;;;;;;;;5324253;28;19922;-73
2023/08/11 08:36:43;;;;;;;;;;;;;;;;;;5324289;28;19916;-72
2023/08/11 08:39:15;;;;;;;;;;;;;;;;;;5324693;28;19923;-73
2023/08/11 08:41:46;;;;;;;;;;;;;;;;;;5323365;28;20388;-72
2023/08/11 08:44:19;;;;;;;;;;;;;;;;;;5324318;28;21600;-70
2023/08/11 08:46:50;;;;;;;;;;;;;;;;;;5323414;28;19979;-75
2023/08/11 08:49:22;;;;;;;;;;;;;;;;;;5324019;28;20041;-73
2023/08/11 08:51:53;;;;;;;;;;;;;;;;;;5323779;28;19915;-73
2023/08/11 08:54:24;;;;;;;;;;;;;;;;;;5323842;28;19999;-73
2023/08/11 08:56:55;;;;;;;;;;;;;;;;;;5323597;28;20026;-73
2023/08/11 08:59:26;;;;;;;;;;;;;;;;;;5324224;28;20010;-73
2023/08/11 09:01:58;;;;;;;;;;;;;;;;;;5324242;28;19976;-73
2023/08/11 09:04:29;;;;;;;;;;;;;;;;;;5323017;28;19908;-73
2023/08/11 09:07:00;;;;;;;;;;;;;;;;;;5324418;28;19907;-73
2023/08/11 09:09:32;;;;;;;;;;;;;;;;;;5323344;28;19908;-73
2023/08/11 09:12:03;;;;;;;;;;;;;;;;;;5324230;28;19953;-74
2023/08/11 09:14:34;;;;;;;;;;;;;;;;;;5323631;28;20002;-73
2023/08/11 09:17:05;;;;;;;;;;;;;;;;;;5323364;28;20328;-73
2023/08/11 09:19:37;;;;;;;;;;;;;;;;;;5323735;28;19916;-73
2023/08/11 09:22:08;;;;;;;;;;;;;;;;;;5324120;28;19908;-73
2023/08/11 09:24:40;;;;;;;;;;;;;;;;;;5322773;28;20038;-73
2023/08/11 09:27:11;;;;;;;;;;;;;;;;;;5323977;28;20415;-74
2023/08/11 09:29:42;;;;;;;;;;;;;;;;;;5323269;28;20007;-74
2023/08/11 09:32:14;;;;;;;;;;;;;;;;;;5323561;28;20377;-74
2023/08/11 09:34:46;;;;;;;;;;;;;;;;;;5323183;28;19972;-74
2023/08/11 09:37:17;;;;;;;;;;;;;;;;;;5323299;28;19915;-74
2023/08/11 09:39:48;;;;;;;;;;;;;;;;;;5323426;28;19943;-74
2023/08/11 09:42:19;;;;;;;;;;;;;;;;;;5324022;28;19922;-73
2023/08/11 09:44:50;;;;;;;;;;;;;;;;;;5322648;28;19930;-74
2023/08/11 09:47:21;;;;;;;;;;;;;;;;;;5324420;28;19907;-73
2023/08/11 09:49:53;;;;;;;;;;;;;;;;;;5323523;28;20355;-71
2023/08/11 09:52:24;;;;;;;;;;;;;;;;;;5322971;28;19908;-73
2023/08/11 09:54:55;;;;;;;;;;;;;;;;;;5323991;28;20251;-73
2023/08/11 09:57:26;;;;;;;;;;;;;;;;;;5324439;28;20045;-75
2023/08/11 09:59:57;;;;;;;;;;;;;;;;;;5327496;28;19916;-74
2023/08/11 10:02:28;;;;;;;;;;;;;;;;;;5328022;28;19984;-74
2023/08/11 10:05:00;;;;;;;;;;;;;;;;;;5328335;28;19915;-74
2023/08/11 10:07:34;;;;;;;;;;;;;;;;;;5326717;28;19908;-74
2023/08/11 10:10:05;;;;;;;;;;;;;;;;;;5328094;28;19915;-74
2023/08/11 10:12:36;;;;;;;;;;;;;;;;;;5327057;28;20290;-75
2023/08/11 10:15:08;;;;;;;;;;;;;;;;;;5328208;28;20006;-75
2023/08/11 10:17:39;;;;;;;;;;;;;;;;;;5327246;28;19911;-74
2023/08/11 10:20:10;;;;;;;;;;;;;;;;;;5327254;28;19916;-72
2023/08/11 10:22:41;;;;;;;;;;;;;;;;;;5327106;28;19908;-74
2023/08/11 10:25:12;;;;;;;;;;;;;;;;;;5327853;28;19969;-74
2023/08/11 10:27:43;;;;;;;;;;;;;;;;;;5326466;28;19918;-75
2023/08/11 10:30:15;;;;;;;;;;;;;;;;;;5327593;28;19924;-75
2023/08/11 10:32:46;;;;;;;;;;;;;;;;;;5327295;28;20371;-75
2023/08/11 10:35:17;;;;;;;;;;;;;;;;;;5326834;28;20374;-73
2023/08/11 10:37:49;;;;;;;;;;;;;;;;;;5326922;28;20327;-75
2023/08/11 10:40:20;;;;;;;;;;;;;;;;;;5327556;28;20332;-75
2023/08/11 10:42:51;;;;;;;;;;;;;;;;;;5325953;28;19969;-75
2023/08/11 10:45:22;;;;;;;;;;;;;;;;;;5327596;28;19949;-75
2023/08/11 10:47:53;;;;;;;;;;;;;;;;;;5326018;28;19907;-70
2023/08/11 10:50:24;;;;;;;;;;;;;;;;;;5327267;28;20018;-72
2023/08/11 10:52:55;;;;;;;;;;;;;;;;;;5326978;28;19947;-72
2023/08/11 10:55:26;;;;;;;;;;;;;;;;;;5326525;28;19999;-73
2023/08/11 10:57:57;;;;;;;;;;;;;;;;;;5326935;28;19911;-73
2023/08/11 11:00:29;;;;;;;;;;;;;;;;;;5326725;28;20319;-73
2023/08/11 11:03:00;;;;;;;;;;;;;;;;;;5326063;28;19907;-72
2023/08/11 11:05:31;;;;;;;;;;;;;;;;;;5326550;28;20411;-70
2023/08/11 11:08:02;;;;;;;;;;;;;;;;;;5327018;28;19953;-71
2023/08/11 11:10:33;;;;;;;;;;;;;;;;;;5324651;28;19915;-71
2023/08/11 11:13:04;;;;;;;;;;;;;;;;;;5326771;28;19984;-71
2023/08/11 11:15:36;;;;;;;;;;;;;;;;;;5326185;28;19908;-72
2023/08/11 11:18:07;;;;;;;;;;;;;;;;;;5325733;28;20311;-72
2023/08/11 11:20:38;;;;;;;;;;;;;;;;;;5326151;28;19971;-72
2023/08/11 11:23:09;;;;;;;;;;;;;;;;;;5325907;28;20216;-72
2023/08/11 11:25:40;;;;;;;;;;;;;;;;;;5326035;28;19912;-72
2023/08/11 11:28:12;;;;;;;;;;;;;;;;;;5326406;28;19908;-72
2023/08/11 11:30:43;;;;;;;;;;;;;;;;;;5325204;28;19965;-71
2023/08/11 11:33:14;;;;;;;;;;;;;;;;;;5326812;28;20362;-71
2023/08/11 11:35:45;;;;;;;;;;;;;;;;;;5325667;28;19919;-71
2023/08/11 11:38:16;;;;;;;;;;;;;;;;;;5320673;28;20261;-71
2023/08/11 11:40:48;;;;;;;;;;;;;;;;;;5325613;28;19919;-72
2023/08/11 11:43:19;;;;;;;;;;;;;;;;;;5326578;28;19911;-71
2023/08/11 11:45:52;;;;;;;;;;;;;;;;;;5325103;28;20358;-71
2023/08/11 11:48:23;;;;;;;;;;;;;;;;;;5326146;28;19908;-71
2023/08/11 11:50:55;;;;;;;;;;;;;;;;;;5325300;28;19949;-71
2023/08/11 11:53:26;;;;;;;;;;;;;;;;;;5324746;28;19919;-70
2023/08/11 11:55:57;;;;;;;;;;;;;;;;;;5325181;28;20006;-71
2023/08/11 11:58:29;;;;;;;;;;;;;;;;;;5323534;28;19999;-70
2023/08/11 12:01:00;;;;;;;;;;;;;;;;;;5325461;28;20250;-70
2023/08/11 12:03:31;;;;;;;;;;;;;;;;;;5324941;28;19908;-71
2023/08/11 12:06:02;;;;;;;;;;;;;;;;;;5324929;28;20324;-72
2023/08/11 12:08:34;;;;;;;;;;;;;;;;;;5325029;28;19908;-72
2023/08/11 12:11:05;;;;;;;;;;;;;;;;;;5325747;28;19908;-71
2023/08/11 12:13:37;;;;;;;;;;;;;;;;;;5324218;28;19914;-71
2023/08/11 12:16:08;;;;;;;;;;;;;;;;;;5325440;28;19912;-70
2023/08/11 12:18:39;;;;;;;;;;;;;;;;;;5324814;28;19914;-70
2023/08/11 12:21:10;;;;;;;;;;;;;;;;;;5324367;28;19923;-70
2023/08/11 12:23:42;;;;;;;;;;;;;;;;;;5324872;28;19907;-70
2023/08/11 12:26:13;;;;;;;;;;;;;;;;;;5324731;28;19912;-70
2023/08/11 12:28:45;;;;;;;;;;;;;;;;;;5324680;28;19915;-70
2023/08/11 12:31:16;;;;;;;;;;;;;;;;;;5325066;28;19954;-71
2023/08/11 12:33:47;;;;;;;;;;;;;;;;;;5324063;28;19943;-70
2023/08/11 12:36:18;;;;;;;;;;;;;;;;;;5325357;28;19926;-70
2023/08/11 12:38:50;;;;;;;;;;;;;;;;;;5324374;28;20075;-71
2023/08/11 12:41:21;;;;;;;;;;;;;;;;;;5324057;28;19920;-70
2023/08/11 12:43:52;;;;;;;;;;;;;;;;;;5324284;28;19908;-70
2023/08/11 12:46:24;;;;;;;;;;;;;;;;;;5324572;28;19908;-71
2023/08/11 12:48:55;;;;;;;;;;;;;;;;;;5323671;28;20327;-70
2023/08/11 12:51:26;;;;;;;;;;;;;;;;;;5324725;28;20044;-71
2023/08/11 12:53:57;;;;;;;;;;;;;;;;;;5324393;28;20003;-70
2023/08/11 12:56:28;;;;;;;;;;;;;;;;;;5323772;28;20385;-71
2023/08/11 12:58:59;;;;;;;;;;;;;;;;;;5324044;28;19908;-71
2023/08/11 13:01:31;;;;;;;;;;;;;;;;;;5323334;28;19958;-71
2023/08/11 13:04:03;;;;;;;;;;;;;;;;;;5324462;28;19908;-71
2023/08/11 13:06:34;;;;;;;;;;;;;;;;;;5323734;28;19911;-70
2023/08/11 13:09:07;;;;;;;;;;;;;;;;;;5323860;28;20260;-70
2023/08/11 13:11:38;;;;;;;;;;;;;;;;;;5323885;28;19956;-71
2023/08/11 13:14:10;;;;;;;;;;;;;;;;;;5324743;28;19951;-71
2023/08/11 13:16:41;;;;;;;;;;;;;;;;;;5322970;28;19908;-71
2023/08/11 13:19:13;;;;;;;;;;;;;;;;;;5324433;28;19915;-71
2023/08/11 13:21:44;;;;;;;;;;;;;;;;;;5305847;28;19915;-71
2023/08/11 13:24:15;;;;;;;;;;;;;;;;;;5323526;28;20061;-71
2023/08/11 13:26:46;;;;;;;;;;;;;;;;;;5323799;28;19915;-72
2023/08/11 13:29:17;;;;;;;;;;;;;;;;;;5324235;28;20392;-72
2023/08/11 13:31:48;;;;;;;;;;;;;;;;;;5322820;28;19911;-71
2023/08/11 13:34:20;;;;;;;;;;;;;;;;;;5323779;28;19920;-72
2023/08/11 13:36:51;;;;;;;;;;;;;;;;;;5322884;28;19923;-71
2023/08/11 13:39:22;;;;;;;;;;;;;;;;;;5324083;28;19915;-71
2023/08/11 13:41:53;;;;;;;;;;;;;;;;;;5323659;28;19907;-71
2023/08/11 13:44:24;;;;;;;;;;;;;;;;;;5323259;28;19908;-72
2023/08/11 13:46:55;;;;;;;;;;;;;;;;;;5323751;28;19908;-72
2023/08/11 13:49:27;;;;;;;;;;;;;;;;;;5323869;28;19960;-71
2023/08/11 13:51:58;;;;;;;;;;;;;;;;;;5322887;28;19912;-72
2023/08/11 13:54:29;;;;;;;;;;;;;;;;;;5323355;28;19911;-71
2023/08/11 13:57:00;;;;;;;;;;;;;;;;;;5323692;28;19908;-71
2023/08/11 13:59:31;;;;;;;;;;;;;;;;;;5322369;28;19955;-71
2023/08/11 14:02:02;;;;;;;;;;;;;;;;;;5323774;28;19915;-71
2023/08/11 14:04:33;;;;;;;;;;;;;;;;;;5322433;28;19994;-72
2023/08/11 14:07:04;;;;;;;;;;;;;;;;;;5324067;28;19950;-71
2023/08/11 14:09:35;;;;;;;;;;;;;;;;;;5323197;28;19943;-72
2023/08/11 14:12:07;;;;;;;;;;;;;;;;;;5323107;28;20122;-72
2023/08/11 14:14:38;;;;;;;;;;;;;;;;;;5323169;28;20388;-71
2023/08/11 14:17:09;;;;;;;;;;;;;;;;;;5323279;28;19930;-72
2023/08/11 14:19:40;;;;;;;;;;;;;;;;;;5322226;28;20366;-71
2023/08/11 14:22:11;;;;;;;;;;;;;;;;;;5323607;28;19915;-71
2023/08/11 14:24:42;;;;;;;;;;;;;;;;;;5322943;28;19994;-71
2023/08/11 14:27:13;;;;;;;;;;;;;;;;;;5322707;28;19908;-71
2023/08/11 14:29:44;;;;;;;;;;;;;;;;;;5322880;28;19908;-71
2023/08/11 14:32:16;;;;;;;;;;;;;;;;;;5323433;28;20006;-71
2023/08/11 14:34:47;;;;;;;;;;;;;;;;;;5321773;28;19920;-71
2023/08/11 14:37:18;;;;;;;;;;;;;;;;;;5323349;28;20006;-72
2023/08/11 14:39:49;;;;;;;;;;;;;;;;;;5321834;28;19930;-72
2023/08/11 14:42:20;;;;;;;;;;;;;;;;;;5304852;28;19984;-71
2023/08/11 14:44:51;;;;;;;;;;;;;;;;;;5323794;28;19908;-71
2023/08/11 14:47:22;;;;;;;;;;;;;;;;;;5326518;28;19910;-71
2023/08/11 14:49:53;;;;;;;;;;;;;;;;;;5326313;28;19960;-72
2023/08/11 14:52:24;;;;;;;;;;;;;;;;;;5326902;28;20334;-72
2023/08/11 14:54:56;;;;;;;;;;;;;;;;;;5325882;28;20026;-72
2023/08/11 14:57:27;;;;;;;;;;;;;;;;;;5326973;28;20010;-72
2023/08/11 14:59:58;;;;;;;;;;;;;;;;;;5326658;28;20056;-71
2023/08/11 15:02:29;;;;;;;;;;;;;;;;;;5325798;28;20271;-72
2023/08/11 15:05:01;;;;;;;;;;;;;;;;;;5326769;28;19908;-71
2023/08/11 15:07:32;;;;;;;;;;;;;;;;;;5326098;28;20030;-73
2023/08/11 15:10:03;;;;;;;;;;;;;;;;;;5322500;28;20386;-71
2023/08/11 15:12:34;;;;;;;;;;;;;;;;;;5325547;28;20057;-72
2023/08/11 15:15:05;;;;;;;;;;;;;;;;;;5325927;28;20362;-74
2023/08/11 15:17:36;;;;;;;;;;;;;;;;;;5325047;28;19912;-70
2023/08/11 15:20:09;;;;;;;;;;;;;;;;;;5325213;28;19927;-69
2023/08/11 15:22:40;;;;;;;;;;;;;;;;;;5323723;28;19961;-71
2023/08/11 15:25:11;;;;;;;;;;;;;;;;;;5326577;28;19916;-72
2023/08/11 15:27:42;;;;;;;;;;;;;;;;;;5325725;28;19961;-72
2023/08/11 15:30:14;;;;;;;;;;;;;;;;;;5325721;28;19908;-71
2023/08/11 15:32:45;;;;;;;;;;;;;;;;;;5326129;28;19947;-70
2023/08/11 15:35:17;;;;;;;;;;;;;;;;;;5326517;28;19959;-70
2023/08/11 15:37:48;;;;;;;;;;;;;;;;;;5324990;28;20710;-68
2023/08/11 15:40:20;;;;;;;;;;;;;;;;;;5326281;28;19916;-68
2023/08/11 15:42:51;;;;;;;;;;;;;;;;;;5307400;28;20270;-70
2023/08/11 15:45:22;;;;;;;;;;;;;;;;;;5325617;28;19904;-69
2023/08/11 15:47:53;;;;;;;;;;;;;;;;;;5325669;28;20212;-70
2023/08/11 15:50:24;;;;;;;;;;;;;;;;;;5325078;28;19911;-70
2023/08/11 15:52:55;;;;;;;;;;;;;;;;;;5325540;28;19908;-69
2023/08/11 15:55:26;;;;;;;;;;;;;;;;;;5325271;28;20299;-70
2023/08/11 15:57:57;;;;;;;;;;;;;;;;;;5324866;28;19957;-70
2023/08/11 16:00:28;;;;;;;;;;;;;;;;;;5325560;28;19923;-71
2023/08/11 16:03:00;;;;;;;;;;;;;;;;;;5325485;28;20019;-71
2023/08/11 16:05:31;;;;;;;;;;;;;;;;;;5324413;28;19915;-71
2023/08/11 16:08:02;;;;;;;;;;;;;;;;;;5325550;28;19923;-71
2023/08/11 16:10:34;;;;;;;;;;;;;;;;;;5325258;28;19908;-71
2023/08/11 16:13:05;;;;;;;;;;;;;;;;;;5324780;28;19908;-70
2023/08/11 16:15:36;;;;;;;;;;;;;;;;;;5324908;28;19908;-71
2023/08/11 16:18:07;;;;;;;;;;;;;;;;;;5325226;28;20445;-70
2023/08/11 16:20:38;;;;;;;;;;;;;;;;;;5324020;28;19927;-70
2023/08/11 16:23:09;;;;;;;;;;;;;;;;;;5325259;28;19908;-70
2023/08/11 16:25:40;;;;;;;;;;;;;;;;;;5323892;28;20251;-70
2023/08/11 16:28:12;;;;;;;;;;;;;;;;;;5325138;28;19915;-70
2023/08/11 16:30:43;;;;;;;;;;;;;;;;;;5324738;28;19912;-70
2023/08/11 16:33:14;;;;;;;;;;;;;;;;;;5324328;28;19931;-70
2023/08/11 16:35:45;;;;;;;;;;;;;;;;;;5324260;28;20349;-70
2023/08/11 16:38:16;;;;;;;;;;;;;;;;;;5325022;28;19908;-70
2023/08/11 16:40:47;;;;;;;;;;;;;;;;;;5323353;28;20362;-70
2023/08/11 16:43:18;;;;;;;;;;;;;;;;;;5324492;28;19912;-71
2023/08/11 16:45:49;;;;;;;;;;;;;;;;;;5324164;28;20346;-70
2023/08/11 16:48:20;;;;;;;;;;;;;;;;;;5323180;28;19911;-70
2023/08/11 16:50:51;;;;;;;;;;;;;;;;;;5324166;28;19908;-70
2023/08/11 16:53:23;;;;;;;;;;;;;;;;;;5323704;28;19907;-71
2023/08/11 16:55:54;;;;;;;;;;;;;;;;;;5324102;28;19908;-71
2023/08/11 16:58:25;;;;;;;;;;;;;;;;;;5324061;28;19904;-71
2023/08/11 17:00:57;;;;;;;;;;;;;;;;;;5323553;28;20358;-71
2023/08/11 17:03:28;;;;;;;;;;;;;;;;;;5324282;28;19958;-70
2023/08/11 17:06:00;;;;;;;;;;;;;;;;;;5324110;28;19908;-71
2023/08/11 17:08:32;;;;;;;;;;;;;;;;;;5322392;28;20371;-71
2023/08/11 17:11:03;;;;;;;;;;;;;;;;;;5324248;28;19915;-72
2023/08/11 17:13:34;;;;;;;;;;;;;;;;;;5323408;28;20286;-72